Metar Cercanos

 

LEPA - Palma De Mallorc, Spain
Distance from station: ONO 38km
Actualización: Thu, 22-Feb-2024 2:30pm CET
Muy nuboso
Muy nuboso
 Viento del SO
Viento: SO 22 km/h
Temperatura: 17°C
Rocío: 16°C
Humedad: 94%
Barómetro: 1011 hPa
Clouds: Muy nuboso
Visibility: 10 km
Cloud details: Muy nuboso 213 m
2024/02/22 13:30 LEPA 221330Z 22012KT 9999 BKN007 17/16 Q1011 NOSIG
LEMH - Mahon/Menorca Is, Spain
Distance from station: ENE 105km
Actualización: Thu, 22-Feb-2024 2:30pm CET
Muy nuboso
Muy nuboso
 Viento del SSO
Viento: SSO 28 km/h
Temperatura: 17°C
Rocío: 14°C
Humedad: 83%
Barómetro: 1011 hPa
Clouds: Muy nuboso
Visibility: 10 km
Cloud details: Muy nuboso 305 m
2024/02/22 13:30 LEMH 221330Z 21015KT 180V250 9999 BKN010 17/14 Q1011
 
LEIB - Ibiza/Es Codola, Spain
Distance from station: OSO 165km
Actualización: Thu, 22-Feb-2024 2:30pm CET
Few Clouds
Few Clouds
 Viento del SO
Viento: SO 20 km/h
Temperatura: 18°C
Rocío: 14°C
Humedad: 78%
Barómetro: 1012 hPa
Clouds: Few Clouds
Visibility: 10 km
Cloud details: Few Clouds 213 m
2024/02/22 13:30 LEIB 221330Z 23011KT 9999 FEW007 18/14 Q1012 NOSIG
LEBL - Barcelona Airpor, Spain
Distance from station: NNO 225km
Actualización: Thu, 22-Feb-2024 2:30pm CET
Few Clouds
Few Clouds
 Viento del SO
Viento: SO 26 km/h
Temperatura: 17°C
Rocío: 8°C
Humedad: 56%
Barómetro: 1007 hPa
Clouds: Few Clouds
Visibility: 10 km
Cloud details: Few Clouds 671 m
2024/02/22 13:30 LEBL 221330Z 22014KT 9999 FEW022 17/08 Q1007 NOSIG
 
LEVC - Valencia (civ/Mi, Spain
Distance from station: NO 188km
Actualización: Thu, 22-Feb-2024 2:30pm CET
Despejado
Despejado
 Viento del O
Viento: O 31 km/h
Temperatura: 21°C
Rocío: 4°C
Humedad: 33%
Barómetro: 1010 hPa
Resumen: Despejado
Visibility: greater than 10 km
2024/02/22 13:30 LEVC 221330Z 26017KT 240V300 CAVOK 21/04 Q1010 NOSIG
LEGE - Gerona/Costa Bra, Spain
Distance from station: N 276km
Actualización: Thu, 22-Feb-2024 2:30pm CET
Despejado
Despejado
 Viento del S
Viento: S 22 km/h
Temperatura: 20°C
Rocío: 5°C
Humedad: 38%
Barómetro: 1004 hPa
Resumen: Despejado
Visibility: greater than 10 km
2024/02/22 13:30 LEGE 221330Z 19012KT 160V230 CAVOK 20/05 Q1004
 
LEAL - Alicante/El Alte, Spain
Distance from station: OSO 344km
Actualización: Thu, 22-Feb-2024 2:30pm CET
Despejado
Despejado
 Viento del SSO
Viento: SSO 24 km/h
Temperatura: 22°C
Rocío: 9°C
Humedad: 44%
Barómetro: 1012 hPa
Resumen: Despejado
Visibility: greater than 10 km
2024/02/22 13:30 LEAL 221330Z 20013KT 150V240 CAVOK 22/09 Q1012 NOSIG
LEAM - Almeria Airport, Spain
Distance from station: SSO 56km
Actualización: Thu, 22-Feb-2024 2:30pm CET
Despejado
Despejado
 Viento del SO
Viento: SO 24 km/h
Temperatura: 20°C
Rocío: 14°C
Humedad: 69%
Barómetro: 1014 hPa
Resumen: Despejado
Visibility: greater than 10 km
2024/02/22 13:30 LEAM 221330Z 22013KT CAVOK 20/14 Q1014
 
LEZG - Zaragoza (mil/Ci, Spain
Distance from station: NO 431km
Actualización: Thu, 22-Feb-2024 2:30pm CET
Despejado
Despejado
 Viento del O
Viento: O 33 km/h
Temperatura: 18°C
Rocío: 6°C
Humedad: 46%
Barómetro: 1009 hPa
Resumen: Despejado
Visibility: greater than 10 km
2024/02/22 13:30 LEZG 221330Z 26018KT CAVOK 18/06 Q1009
LEMD - Madrid/Barajas, Spain
Distance from station: ONO 234km
Actualización: Thu, 22-Feb-2024 2:30pm CET
Muy nuboso
Muy nuboso
 Viento del SO
Viento: SO 31 km/h
Temperatura: 13°C
Rocío: 8°C
Humedad: 72%
Barómetro: 1014 hPa
Clouds: Muy nuboso
Visibility: 10 km
Cloud details: Muy nuboso 762 m
2024/02/22 13:30 LEMD 221330Z 22017KT 9999 BKN025 13/08 Q1014 NOSIG
 
LEGR - Granada Airport, Spain
Distance from station: OSO 62km
Actualización: Thu, 22-Feb-2024 2:30pm CET
Few Clouds
Few Clouds
 Viento del O
Viento: O 26 km/h
Temperatura: 18°C
Rocío: 5°C
Humedad: 43%
Barómetro: 1019 hPa
Clouds: Few Clouds
Visibility: 10 km
Cloud details: Few Clouds 2134 m
2024/02/22 13:30 LEGR 221330Z 27014KT 250V320 9999 FEW070 18/05 Q1019
LEMG - Malaga (civ/Mil), Spain
Distance from station: OSO 227km
Actualización: Thu, 22-Feb-2024 2:30pm CET
Despejado
Despejado
 Viento del NO
Viento: NO 24 km/h, Racha: 43 km/h
Temperatura: 25°C
Rocío: -1°C
Humedad: 18%
Barómetro: 1017 hPa
Resumen: Despejado
Visibility: greater than 10 km
2024/02/22 13:30 LEMG 221330Z 32013G23KT CAVOK 25/M01 Q1017 NOSIG
 
LEZL - Sevilla (civ/Mil, Spain
Distance from station: S 318km
Actualización: Thu, 22-Feb-2024 2:30pm CET
Few Clouds
Few Clouds
 Viento del O
Viento: O 30 km/h
Temperatura: 18°C
Rocío: 9°C
Humedad: 56%
Barómetro: 1020 hPa
Clouds: Few Clouds
Visibility: 10 km
Cloud details: Few Clouds 1219 m
2024/02/22 13:30 LEZL 221330Z 27016KT 9999 FEW040 18/09 Q1020 NOSIG
LEVT - Vitoria, Spain
Distance from station: NO 226km
Actualización: Thu, 22-Feb-2024 2:30pm CET
Muy nuboso
Muy nuboso
 Viento del SO
Viento: SO 28 km/h
Temperatura: 14°C
Rocío: 8°C
Humedad: 67%
Barómetro: 1007 hPa
Clouds: Muy nuboso
Visibility: 10 km
Cloud details: Muy nuboso 1097 m
2024/02/22 13:30 LEVT 221330Z 23015KT 200V260 9999 BKN036 14/08 Q1007
 
LEBB - Bilbao/Sondica, Spain
Distance from station: NNO 235km
Actualización: Thu, 22-Feb-2024 2:30pm CET
Lluvia débil, Muy nuboso
Lluvia débil, Muy nuboso
 Viento del ONO
Viento: ONO 44 km/h, Racha: 69 km/h
Temperatura: 13°C
Rocío: 11°C
Humedad: 88%
Barómetro: 1007 hPa
Resumen: Lluvia débil
Clouds: Muy nuboso
Visibility: 5 km
Cloud details: Parcialmente nuboso 366 m
Muy nuboso 853 m
2024/02/22 13:30 LEBB 221330Z 30024G37KT 5000 -RA SCT012 BKN028 13/11 Q1007 RERA WS ALL RWY NOSIG
LESO - San Sebastian/Fu, Spain
Distance from station: N 231km
Actualización: Thu, 22-Feb-2024 2:30pm CET
Few Clouds
Few Clouds
 Viento del SO
Viento: SO 28 km/h, Racha: 50 km/h
Temperatura: 21°C
Rocío: 8°C
Humedad: 43%
Barómetro: 1002 hPa
Clouds: Few Clouds
Visibility: 10 km
Cloud details: Few Clouds 1981 m
2024/02/22 13:30 LESO 221330Z 22015G27KT 190V260 9999 FEW065 21/08 Q1002
 
LEVD - Valladolid(Mil/C, Spain
Distance from station: ONO 239km
Actualización: Thu, 22-Feb-2024 2:30pm CET
Cubierto
Cubierto
 Viento del OSO
Viento: OSO 43 km/h, Racha: 67 km/h
Temperatura: 11°C
Rocío: 8°C
Humedad: 82%
Barómetro: 1010 hPa
Clouds: Cubierto
Visibility: 10 km
Cloud details: Muy nuboso 610 m
Cubierto 914 m
2024/02/22 13:30 LEVD 221330Z 24023G36KT 9999 BKN020 OVC030 11/08 Q1010
LESA - Salamanca (civ/M, Spain
Distance from station: ONO 349km
Actualización: Thu, 22-Feb-2024 2:30pm CET
Parcialmente nuboso
Parcialmente nuboso
 Viento del OSO
Viento: OSO 46 km/h
Temperatura: 13°C
Rocío: 8°C
Humedad: 72%
Barómetro: 1012 hPa
Clouds: Parcialmente nuboso
Visibility: 10 km
Cloud details: Muy nuboso 549 m
Parcialmente nuboso 762 m
2024/02/22 13:30 LESA 221330Z 24025KT 9999 BKN018 SCT025 13/08 Q1012
 
LEXJ - Santander/Paraya, Spain
Distance from station: NNO 247km
Actualización: Thu, 22-Feb-2024 2:30pm CET
Lluvia débil, Muy nuboso
Lluvia débil, Muy nuboso
 Viento del ONO
Viento: ONO 44 km/h, Racha: 63 km/h
Temperatura: 12°C
Rocío: 12°C
Humedad: 100%
Barómetro: 1008 hPa
Resumen: Lluvia débil
Clouds: Muy nuboso
Visibility: 5 km
Cloud details: Muy nuboso 457 m
Few Clouds 762 m
Muy nuboso 914 m
2024/02/22 13:30 LEXJ 221330Z 29024G34KT 270V330 5000 -RA BKN015 FEW025TCU BKN030 12/12 Q1008 RESHRA
LEAS - Asturias/Aviles, Spain
Distance from station: NO 214km
Actualización: Thu, 22-Feb-2024 2:40pm CET
Lluvia débil, Muy nuboso
Lluvia débil, Muy nuboso
 Viento del O
Viento: O 65 km/h, Racha: 83 km/h
Temperatura: 12°C
Rocío: 7°C
Humedad: 72%
Barómetro: 1009 hPa
Resumen: Lluvia débil
Clouds: Muy nuboso
Visibility: 6 km
Cloud details: Parcialmente nuboso 457 m
Muy nuboso 1524 m
2024/02/22 13:40 LEAS 221340Z 28035G45KT 6000 -RA SCT015 BKN050 12/07 Q1009 WS ALL RWY TEMPO 3000 RA
 
LECO - La Coruna/Alvedr, Spain
Distance from station: ONO 222km
Actualización: Thu, 22-Feb-2024 2:30pm CET
Muy nuboso
Muy nuboso
 Viento del ONO
Viento: ONO 31 km/h, Racha: 56 km/h
Temperatura: 12°C
Rocío: 6°C
Humedad: 67%
Barómetro: 1013 hPa
Clouds: Muy nuboso
Visibility: 10 km
Cloud details: Muy nuboso 1097 m
2024/02/22 13:30 LECO 221330Z 30017G30KT 250V350 9999 BKN036 12/06 Q1013 NOSIG
LEVX - Vigo/Peinador, Spain
Distance from station: O 214km
Actualización: Thu, 22-Feb-2024 2:30pm CET
Muy nuboso
Muy nuboso
 Viento del NO
Viento: NO 17 km/h, Racha: 37 km/h
Temperatura: 12°C
Rocío: 8°C
Humedad: 77%
Barómetro: 1014 hPa
Clouds: Muy nuboso
Visibility: 10 km
Cloud details: Few Clouds 518 m
Parcialmente nuboso 640 m
Muy nuboso 732 m
2024/02/22 13:30 LEVX 221330Z 31009G20KT 250V360 9999 FEW017 SCT021 BKN024 12/08 Q1014 NOSIG